sensor_id;sensor_type;location;lat;lon;timestamp;P1;durP1;ratioP1;P2;durP2;ratioP2
21822;SDS011;11074;48.596;9.238;2023-06-04T00:02:24;8.27;;;6.18;;
21822;SDS011;11074;48.596;9.238;2023-06-04T00:04:50;7.88;;;6.25;;
21822;SDS011;11074;48.596;9.238;2023-06-04T00:07:16;12.10;;;6.75;;
21822;SDS011;11074;48.596;9.238;2023-06-04T00:09:42;7.28;;;5.88;;
21822;SDS011;11074;48.596;9.238;2023-06-04T00:12:09;8.65;;;6.13;;
21822;SDS011;11074;48.596;9.238;2023-06-04T00:14:34;9.18;;;6.07;;
21822;SDS011;11074;48.596;9.238;2023-06-04T00:17:00;9.35;;;6.43;;
21822;SDS011;11074;48.596;9.238;2023-06-04T00:19:26;9.18;;;6.60;;
21822;SDS011;11074;48.596;9.238;2023-06-04T00:21:51;9.75;;;6.65;;
21822;SDS011;11074;48.596;9.238;2023-06-04T00:24:17;11.75;;;7.38;;
21822;SDS011;11074;48.596;9.238;2023-06-04T00:26:43;11.18;;;7.43;;
21822;SDS011;11074;48.596;9.238;2023-06-04T00:29:09;10.32;;;7.07;;
21822;SDS011;11074;48.596;9.238;2023-06-04T00:31:35;8.68;;;6.65;;
21822;SDS011;11074;48.596;9.238;2023-06-04T00:34:02;8.70;;;6.30;;
21822;SDS011;11074;48.596;9.238;2023-06-04T00:36:29;10.73;;;6.30;;
21822;SDS011;11074;48.596;9.238;2023-06-04T00:38:55;10.15;;;6.15;;
21822;SDS011;11074;48.596;9.238;2023-06-04T00:41:20;10.45;;;6.40;;
21822;SDS011;11074;48.596;9.238;2023-06-04T00:43:46;9.05;;;6.18;;
21822;SDS011;11074;48.596;9.238;2023-06-04T00:46:21;8.27;;;6.22;;
21822;SDS011;11074;48.596;9.238;2023-06-04T00:48:49;8.13;;;6.00;;
21822;SDS011;11074;48.596;9.238;2023-06-04T00:51:16;9.02;;;5.75;;
21822;SDS011;11074;48.596;9.238;2023-06-04T00:53:41;11.48;;;6.20;;
21822;SDS011;11074;48.596;9.238;2023-06-04T00:56:07;8.75;;;5.50;;
21822;SDS011;11074;48.596;9.238;2023-06-04T00:58:37;7.82;;;6.07;;
21822;SDS011;11074;48.596;9.238;2023-06-04T01:01:10;9.07;;;5.97;;
21822;SDS011;11074;48.596;9.238;2023-06-04T01:03:49;9.30;;;6.15;;
21822;SDS011;11074;48.596;9.238;2023-06-04T01:06:38;7.55;;;6.30;;
21822;SDS011;11074;48.596;9.238;2023-06-04T01:09:08;10.60;;;7.20;;
21822;SDS011;11074;48.596;9.238;2023-06-04T01:11:39;8.93;;;6.80;;
21822;SDS011;11074;48.596;9.238;2023-06-04T01:14:06;8.57;;;6.45;;
21822;SDS011;11074;48.596;9.238;2023-06-04T01:16:54;10.90;;;6.38;;
21822;SDS011;11074;48.596;9.238;2023-06-04T01:25:32;15.25;;;6.68;;
21822;SDS011;11074;48.596;9.238;2023-06-04T01:28:01;10.13;;;6.82;;
21822;SDS011;11074;48.596;9.238;2023-06-04T01:30:30;10.48;;;6.68;;
21822;SDS011;11074;48.596;9.238;2023-06-04T01:32:59;10.10;;;6.63;;
21822;SDS011;11074;48.596;9.238;2023-06-04T01:35:27;12.18;;;6.68;;
21822;SDS011;11074;48.596;9.238;2023-06-04T01:37:56;8.60;;;6.13;;
21822;SDS011;11074;48.596;9.238;2023-06-04T01:40:22;9.38;;;5.90;;
21822;SDS011;11074;48.596;9.238;2023-06-04T01:42:50;8.32;;;6.22;;
21822;SDS011;11074;48.596;9.238;2023-06-04T01:45:15;9.93;;;5.65;;
21822;SDS011;11074;48.596;9.238;2023-06-04T01:47:41;9.35;;;5.82;;
21822;SDS011;11074;48.596;9.238;2023-06-04T01:50:07;8.70;;;6.40;;
21822;SDS011;11074;48.596;9.238;2023-06-04T01:52:34;8.02;;;6.35;;
21822;SDS011;11074;48.596;9.238;2023-06-04T01:55:04;10.82;;;7.10;;
21822;SDS011;11074;48.596;9.238;2023-06-04T01:57:37;11.82;;;6.45;;
21822;SDS011;11074;48.596;9.238;2023-06-04T02:00:04;10.20;;;6.57;;
21822;SDS011;11074;48.596;9.238;2023-06-04T02:02:35;9.95;;;7.00;;
21822;SDS011;11074;48.596;9.238;2023-06-04T02:05:03;9.20;;;6.13;;
21822;SDS011;11074;48.596;9.238;2023-06-04T02:07:34;12.13;;;7.03;;
21822;SDS011;11074;48.596;9.238;2023-06-04T02:10:08;8.75;;;6.57;;
21822;SDS011;11074;48.596;9.238;2023-06-04T02:12:36;8.32;;;6.25;;
21822;SDS011;11074;48.596;9.238;2023-06-04T02:15:04;10.65;;;6.45;;
21822;SDS011;11074;48.596;9.238;2023-06-04T02:17:30;9.48;;;6.40;;
21822;SDS011;11074;48.596;9.238;2023-06-04T02:20:02;9.77;;;6.38;;
21822;SDS011;11074;48.596;9.238;2023-06-04T02:22:29;9.27;;;6.70;;
21822;SDS011;11074;48.596;9.238;2023-06-04T02:24:55;14.50;;;7.10;;
21822;SDS011;11074;48.596;9.238;2023-06-04T02:27:20;9.20;;;6.60;;
21822;SDS011;11074;48.596;9.238;2023-06-04T02:29:47;11.25;;;6.70;;
21822;SDS011;11074;48.596;9.238;2023-06-04T02:32:12;8.63;;;6.25;;
21822;SDS011;11074;48.596;9.238;2023-06-04T02:34:38;8.45;;;6.32;;
21822;SDS011;11074;48.596;9.238;2023-06-04T02:37:04;8.20;;;6.10;;
21822;SDS011;11074;48.596;9.238;2023-06-04T02:39:30;8.52;;;6.68;;
21822;SDS011;11074;48.596;9.238;2023-06-04T02:41:56;8.02;;;6.00;;
21822;SDS011;11074;48.596;9.238;2023-06-04T02:44:21;8.30;;;6.63;;
21822;SDS011;11074;48.596;9.238;2023-06-04T02:46:47;9.90;;;6.75;;
21822;SDS011;11074;48.596;9.238;2023-06-04T02:49:13;10.45;;;7.03;;
21822;SDS011;11074;48.596;9.238;2023-06-04T02:51:39;9.95;;;6.65;;
21822;SDS011;11074;48.596;9.238;2023-06-04T02:54:05;10.00;;;6.82;;
21822;SDS011;11074;48.596;9.238;2023-06-04T02:56:31;8.82;;;6.32;;
21822;SDS011;11074;48.596;9.238;2023-06-04T02:58:58;8.38;;;6.28;;
21822;SDS011;11074;48.596;9.238;2023-06-04T03:01:25;10.63;;;6.60;;
21822;SDS011;11074;48.596;9.238;2023-06-04T03:03:52;9.95;;;6.72;;
21822;SDS011;11074;48.596;9.238;2023-06-04T03:06:22;9.38;;;6.47;;
21822;SDS011;11074;48.596;9.238;2023-06-04T03:08:49;10.90;;;6.85;;
21822;SDS011;11074;48.596;9.238;2023-06-04T03:11:16;7.93;;;6.55;;
21822;SDS011;11074;48.596;9.238;2023-06-04T03:13:46;9.52;;;6.35;;
21822;SDS011;11074;48.596;9.238;2023-06-04T03:16:12;8.55;;;6.32;;
21822;SDS011;11074;48.596;9.238;2023-06-04T03:18:41;8.68;;;5.82;;
21822;SDS011;11074;48.596;9.238;2023-06-04T03:21:07;7.95;;;5.20;;
21822;SDS011;11074;48.596;9.238;2023-06-04T03:23:36;10.88;;;5.60;;
21822;SDS011;11074;48.596;9.238;2023-06-04T03:26:02;8.32;;;5.43;;
21822;SDS011;11074;48.596;9.238;2023-06-04T03:28:29;7.35;;;4.88;;
21822;SDS011;11074;48.596;9.238;2023-06-04T03:30:56;8.88;;;5.50;;
21822;SDS011;11074;48.596;9.238;2023-06-04T03:33:21;5.90;;;4.57;;
21822;SDS011;11074;48.596;9.238;2023-06-04T03:35:47;8.07;;;5.10;;
21822;SDS011;11074;48.596;9.238;2023-06-04T03:38:15;9.85;;;5.10;;
21822;SDS011;11074;48.596;9.238;2023-06-04T03:40:40;8.18;;;4.95;;
21822;SDS011;11074;48.596;9.238;2023-06-04T03:43:06;8.45;;;5.68;;
21822;SDS011;11074;48.596;9.238;2023-06-04T03:45:32;8.52;;;5.57;;
21822;SDS011;11074;48.596;9.238;2023-06-04T03:47:58;9.40;;;5.97;;
21822;SDS011;11074;48.596;9.238;2023-06-04T03:50:23;8.38;;;5.40;;
21822;SDS011;11074;48.596;9.238;2023-06-04T03:52:50;8.02;;;5.72;;
21822;SDS011;11074;48.596;9.238;2023-06-04T03:55:15;10.38;;;5.45;;
21822;SDS011;11074;48.596;9.238;2023-06-04T03:57:41;6.55;;;5.20;;
21822;SDS011;11074;48.596;9.238;2023-06-04T04:00:07;7.90;;;5.70;;
21822;SDS011;11074;48.596;9.238;2023-06-04T04:02:38;7.70;;;5.57;;
21822;SDS011;11074;48.596;9.238;2023-06-04T04:05:05;7.53;;;5.32;;
21822;SDS011;11074;48.596;9.238;2023-06-04T04:07:31;8.98;;;5.78;;
21822;SDS011;11074;48.596;9.238;2023-06-04T04:09:57;12.18;;;5.80;;
21822;SDS011;11074;48.596;9.238;2023-06-04T04:12:23;8.57;;;5.55;;
21822;SDS011;11074;48.596;9.238;2023-06-04T04:14:49;9.27;;;5.45;;
21822;SDS011;11074;48.596;9.238;2023-06-04T04:17:14;9.77;;;5.75;;
21822;SDS011;11074;48.596;9.238;2023-06-04T04:19:40;8.35;;;5.60;;
21822;SDS011;11074;48.596;9.238;2023-06-04T04:22:06;9.98;;;5.43;;
21822;SDS011;11074;48.596;9.238;2023-06-04T04:24:33;8.52;;;5.30;;
21822;SDS011;11074;48.596;9.238;2023-06-04T04:27:02;9.73;;;6.05;;
21822;SDS011;11074;48.596;9.238;2023-06-04T04:29:29;7.82;;;5.60;;
21822;SDS011;11074;48.596;9.238;2023-06-04T04:31:59;9.45;;;6.63;;
21822;SDS011;11074;48.596;9.238;2023-06-04T04:34:27;7.22;;;6.18;;
21822;SDS011;11074;48.596;9.238;2023-06-04T04:36:53;9.57;;;5.78;;
21822;SDS011;11074;48.596;9.238;2023-06-04T04:39:21;8.32;;;5.57;;
21822;SDS011;11074;48.596;9.238;2023-06-04T04:41:49;7.55;;;5.30;;
21822;SDS011;11074;48.596;9.238;2023-06-04T04:44:15;7.10;;;5.10;;
21822;SDS011;11074;48.596;9.238;2023-06-04T04:46:41;7.78;;;5.60;;
21822;SDS011;11074;48.596;9.238;2023-06-04T04:49:06;9.30;;;5.50;;
21822;SDS011;11074;48.596;9.238;2023-06-04T04:51:32;9.35;;;5.82;;
21822;SDS011;11074;48.596;9.238;2023-06-04T04:53:58;8.40;;;5.93;;
21822;SDS011;11074;48.596;9.238;2023-06-04T04:56:27;10.00;;;6.07;;
21822;SDS011;11074;48.596;9.238;2023-06-04T04:58:56;8.85;;;6.15;;
21822;SDS011;11074;48.596;9.238;2023-06-04T05:01:22;8.82;;;6.53;;
21822;SDS011;11074;48.596;9.238;2023-06-04T05:03:49;10.55;;;6.07;;
21822;SDS011;11074;48.596;9.238;2023-06-04T05:06:14;7.97;;;6.22;;
21822;SDS011;11074;48.596;9.238;2023-06-04T05:08:40;11.25;;;7.13;;
21822;SDS011;11074;48.596;9.238;2023-06-04T05:11:07;10.80;;;6.50;;
21822;SDS011;11074;48.596;9.238;2023-06-04T05:13:33;9.55;;;6.63;;
21822;SDS011;11074;48.596;9.238;2023-06-04T05:15:58;10.00;;;6.75;;
21822;SDS011;11074;48.596;9.238;2023-06-04T05:18:31;10.10;;;6.88;;
21822;SDS011;11074;48.596;9.238;2023-06-04T05:21:05;9.48;;;6.80;;
21822;SDS011;11074;48.596;9.238;2023-06-04T05:23:32;9.85;;;6.82;;
21822;SDS011;11074;48.596;9.238;2023-06-04T05:26:02;9.20;;;6.85;;
21822;SDS011;11074;48.596;9.238;2023-06-04T05:28:29;14.00;;;7.07;;
21822;SDS011;11074;48.596;9.238;2023-06-04T05:30:58;11.38;;;6.70;;
21822;SDS011;11074;48.596;9.238;2023-06-04T05:33:28;9.32;;;6.32;;
21822;SDS011;11074;48.596;9.238;2023-06-04T05:35:56;7.68;;;6.10;;
21822;SDS011;11074;48.596;9.238;2023-06-04T05:38:24;9.82;;;5.63;;
21822;SDS011;11074;48.596;9.238;2023-06-04T05:40:53;9.90;;;5.88;;
21822;SDS011;11074;48.596;9.238;2023-06-04T05:43:20;10.13;;;5.40;;
21822;SDS011;11074;48.596;9.238;2023-06-04T05:45:47;9.80;;;5.63;;
21822;SDS011;11074;48.596;9.238;2023-06-04T05:48:13;6.53;;;4.97;;
21822;SDS011;11074;48.596;9.238;2023-06-04T05:50:39;7.78;;;5.47;;
21822;SDS011;11074;48.596;9.238;2023-06-04T05:53:04;8.25;;;5.57;;
21822;SDS011;11074;48.596;9.238;2023-06-04T05:55:31;6.80;;;5.05;;
21822;SDS011;11074;48.596;9.238;2023-06-04T05:57:56;6.82;;;4.70;;
21822;SDS011;11074;48.596;9.238;2023-06-04T06:00:22;6.80;;;4.50;;
21822;SDS011;11074;48.596;9.238;2023-06-04T06:02:49;6.72;;;4.25;;
21822;SDS011;11074;48.596;9.238;2023-06-04T06:05:17;8.23;;;4.07;;
21822;SDS011;11074;48.596;9.238;2023-06-04T06:07:44;6.18;;;3.80;;
21822;SDS011;11074;48.596;9.238;2023-06-04T06:10:11;5.60;;;3.42;;
21822;SDS011;11074;48.596;9.238;2023-06-04T06:12:38;5.22;;;3.90;;
21822;SDS011;11074;48.596;9.238;2023-06-04T06:15:05;6.45;;;4.10;;
21822;SDS011;11074;48.596;9.238;2023-06-04T06:17:31;6.07;;;3.60;;
21822;SDS011;11074;48.596;9.238;2023-06-04T06:19:57;5.93;;;3.60;;
21822;SDS011;11074;48.596;9.238;2023-06-04T06:22:24;6.05;;;2.90;;
21822;SDS011;11074;48.596;9.238;2023-06-04T06:24:51;5.07;;;3.13;;
21822;SDS011;11074;48.596;9.238;2023-06-04T06:27:17;5.35;;;3.03;;
21822;SDS011;11074;48.596;9.238;2023-06-04T06:29:43;4.70;;;3.20;;
21822;SDS011;11074;48.596;9.238;2023-06-04T06:32:09;7.72;;;3.17;;
21822;SDS011;11074;48.596;9.238;2023-06-04T06:34:36;5.47;;;3.33;;
21822;SDS011;11074;48.596;9.238;2023-06-04T06:37:06;8.15;;;3.75;;
21822;SDS011;11074;48.596;9.238;2023-06-04T06:39:32;5.93;;;3.40;;
21822;SDS011;11074;48.596;9.238;2023-06-04T06:41:57;5.22;;;3.60;;
21822;SDS011;11074;48.596;9.238;2023-06-04T06:44:23;6.35;;;3.13;;
21822;SDS011;11074;48.596;9.238;2023-06-04T06:46:49;5.15;;;2.88;;
21822;SDS011;11074;48.596;9.238;2023-06-04T06:49:15;4.70;;;3.20;;
21822;SDS011;11074;48.596;9.238;2023-06-04T06:51:41;6.07;;;3.30;;
21822;SDS011;11074;48.596;9.238;2023-06-04T06:54:10;5.03;;;2.85;;
21822;SDS011;11074;48.596;9.238;2023-06-04T06:56:35;5.32;;;2.67;;
21822;SDS011;11074;48.596;9.238;2023-06-04T06:59:01;5.13;;;2.92;;
21822;SDS011;11074;48.596;9.238;2023-06-04T07:01:27;4.40;;;2.53;;
21822;SDS011;11074;48.596;9.238;2023-06-04T07:03:52;5.07;;;3.00;;
21822;SDS011;11074;48.596;9.238;2023-06-04T07:06:18;4.88;;;2.47;;
21822;SDS011;11074;48.596;9.238;2023-06-04T07:08:44;5.72;;;2.80;;
21822;SDS011;11074;48.596;9.238;2023-06-04T07:11:09;3.60;;;2.17;;
21822;SDS011;11074;48.596;9.238;2023-06-04T07:13:38;5.72;;;2.83;;
21822;SDS011;11074;48.596;9.238;2023-06-04T07:16:04;3.80;;;2.60;;
21822;SDS011;11074;48.596;9.238;2023-06-04T07:18:31;4.95;;;2.80;;
21822;SDS011;11074;48.596;9.238;2023-06-04T07:20:57;4.63;;;2.45;;
21822;SDS011;11074;48.596;9.238;2023-06-04T07:23:23;4.63;;;2.30;;
21822;SDS011;11074;48.596;9.238;2023-06-04T07:25:49;9.07;;;2.67;;
21822;SDS011;11074;48.596;9.238;2023-06-04T07:28:14;6.45;;;2.42;;
21822;SDS011;11074;48.596;9.238;2023-06-04T07:30:40;6.28;;;2.83;;
21822;SDS011;11074;48.596;9.238;2023-06-04T07:33:06;4.43;;;2.65;;
21822;SDS011;11074;48.596;9.238;2023-06-04T07:35:31;4.63;;;2.40;;
21822;SDS011;11074;48.596;9.238;2023-06-04T07:37:57;5.07;;;2.60;;
21822;SDS011;11074;48.596;9.238;2023-06-04T07:40:23;4.45;;;2.40;;
21822;SDS011;11074;48.596;9.238;2023-06-04T07:42:49;3.65;;;2.47;;
21822;SDS011;11074;48.596;9.238;2023-06-04T07:45:14;5.88;;;2.60;;
21822;SDS011;11074;48.596;9.238;2023-06-04T07:47:41;4.85;;;2.22;;
21822;SDS011;11074;48.596;9.238;2023-06-04T07:50:08;7.72;;;2.50;;
21822;SDS011;11074;48.596;9.238;2023-06-04T07:52:34;3.38;;;2.08;;
21822;SDS011;11074;48.596;9.238;2023-06-04T07:55:00;4.05;;;2.22;;
21822;SDS011;11074;48.596;9.238;2023-06-04T07:57:27;5.40;;;2.50;;
21822;SDS011;11074;48.596;9.238;2023-06-04T07:59:54;3.75;;;2.25;;
21822;SDS011;11074;48.596;9.238;2023-06-04T08:02:21;4.80;;;2.45;;
21822;SDS011;11074;48.596;9.238;2023-06-04T08:04:47;8.65;;;2.42;;
21822;SDS011;11074;48.596;9.238;2023-06-04T08:07:13;5.93;;;2.28;;
21822;SDS011;11074;48.596;9.238;2023-06-04T08:09:38;9.18;;;2.28;;
21822;SDS011;11074;48.596;9.238;2023-06-04T08:12:04;5.28;;;2.70;;
21822;SDS011;11074;48.596;9.238;2023-06-04T08:14:30;3.78;;;2.40;;
21822;SDS011;11074;48.596;9.238;2023-06-04T08:16:56;5.82;;;2.17;;
21822;SDS011;11074;48.596;9.238;2023-06-04T08:19:22;4.70;;;2.45;;
21822;SDS011;11074;48.596;9.238;2023-06-04T08:21:48;5.50;;;2.50;;
21822;SDS011;11074;48.596;9.238;2023-06-04T08:24:15;8.90;;;2.50;;
21822;SDS011;11074;48.596;9.238;2023-06-04T08:26:40;5.63;;;2.50;;
21822;SDS011;11074;48.596;9.238;2023-06-04T08:29:07;5.60;;;2.60;;
21822;SDS011;11074;48.596;9.238;2023-06-04T08:31:33;4.78;;;2.55;;
21822;SDS011;11074;48.596;9.238;2023-06-04T08:33:58;3.72;;;2.30;;
21822;SDS011;11074;48.596;9.238;2023-06-04T08:36:24;5.85;;;2.20;;
21822;SDS011;11074;48.596;9.238;2023-06-04T08:38:52;3.35;;;2.67;;
21822;SDS011;11074;48.596;9.238;2023-06-04T08:41:28;4.38;;;2.65;;
21822;SDS011;11074;48.596;9.238;2023-06-04T08:44:03;5.07;;;2.40;;
21822;SDS011;11074;48.596;9.238;2023-06-04T08:46:31;5.72;;;2.50;;
21822;SDS011;11074;48.596;9.238;2023-06-04T08:48:59;5.18;;;2.42;;
21822;SDS011;11074;48.596;9.238;2023-06-04T08:51:27;4.30;;;2.53;;
21822;SDS011;11074;48.596;9.238;2023-06-04T08:53:57;3.92;;;2.28;;
21822;SDS011;11074;48.596;9.238;2023-06-04T08:56:24;6.15;;;2.78;;
21822;SDS011;11074;48.596;9.238;2023-06-04T08:58:51;3.38;;;2.20;;
21822;SDS011;11074;48.596;9.238;2023-06-04T09:01:20;5.80;;;2.63;;
21822;SDS011;11074;48.596;9.238;2023-06-04T09:03:45;3.80;;;2.30;;
21822;SDS011;11074;48.596;9.238;2023-06-04T09:06:11;3.60;;;2.28;;
21822;SDS011;11074;48.596;9.238;2023-06-04T09:08:37;4.28;;;2.50;;
21822;SDS011;11074;48.596;9.238;2023-06-04T09:11:08;3.72;;;2.30;;
21822;SDS011;11074;48.596;9.238;2023-06-04T09:13:38;4.15;;;2.60;;
21822;SDS011;11074;48.596;9.238;2023-06-04T09:16:07;3.85;;;2.25;;
21822;SDS011;11074;48.596;9.238;2023-06-04T09:18:33;4.18;;;2.80;;
21822;SDS011;11074;48.596;9.238;2023-06-04T09:21:02;5.25;;;2.67;;
21822;SDS011;11074;48.596;9.238;2023-06-04T09:23:31;6.93;;;2.83;;
21822;SDS011;11074;48.596;9.238;2023-06-04T09:26:11;3.63;;;2.33;;
21822;SDS011;11074;48.596;9.238;2023-06-04T09:28:44;7.07;;;2.78;;
21822;SDS011;11074;48.596;9.238;2023-06-04T09:31:14;5.20;;;2.25;;
21822;SDS011;11074;48.596;9.238;2023-06-04T09:33:45;4.13;;;2.45;;
21822;SDS011;11074;48.596;9.238;2023-06-04T09:36:14;4.10;;;2.33;;
21822;SDS011;11074;48.596;9.238;2023-06-04T09:38:41;4.40;;;2.42;;
21822;SDS011;11074;48.596;9.238;2023-06-04T09:41:17;4.43;;;2.35;;
21822;SDS011;11074;48.596;9.238;2023-06-04T09:43:44;5.38;;;2.60;;
21822;SDS011;11074;48.596;9.238;2023-06-04T09:46:11;5.03;;;2.47;;
21822;SDS011;11074;48.596;9.238;2023-06-04T09:48:43;4.85;;;2.65;;
21822;SDS011;11074;48.596;9.238;2023-06-04T09:51:14;5.85;;;2.88;;
21822;SDS011;11074;48.596;9.238;2023-06-04T09:53:43;3.58;;;2.50;;
21822;SDS011;11074;48.596;9.238;2023-06-04T09:56:23;6.88;;;2.80;;
21822;SDS011;11074;48.596;9.238;2023-06-04T09:58:55;7.45;;;3.10;;
21822;SDS011;11074;48.596;9.238;2023-06-04T10:01:28;4.30;;;2.80;;
21822;SDS011;11074;48.596;9.238;2023-06-04T10:03:55;5.97;;;2.70;;
21822;SDS011;11074;48.596;9.238;2023-06-04T10:06:29;3.13;;;2.65;;
21822;SDS011;11074;48.596;9.238;2023-06-04T10:08:59;4.75;;;2.50;;
21822;SDS011;11074;48.596;9.238;2023-06-04T10:11:34;5.03;;;2.75;;
21822;SDS011;11074;48.596;9.238;2023-06-04T10:16:41;6.63;;;3.20;;
21822;SDS011;11074;48.596;9.238;2023-06-04T10:19:07;4.40;;;2.70;;
21822;SDS011;11074;48.596;9.238;2023-06-04T10:21:33;4.18;;;2.80;;
21822;SDS011;11074;48.596;9.238;2023-06-04T10:24:01;5.47;;;3.00;;
21822;SDS011;11074;48.596;9.238;2023-06-04T10:26:27;3.72;;;2.70;;
21822;SDS011;11074;48.596;9.238;2023-06-04T10:28:53;7.15;;;3.22;;
21822;SDS011;11074;48.596;9.238;2023-06-04T10:31:22;7.07;;;3.63;;
21822;SDS011;11074;48.596;9.238;2023-06-04T10:33:47;5.88;;;3.63;;
21822;SDS011;11074;48.596;9.238;2023-06-04T10:36:20;5.18;;;3.22;;
21822;SDS011;11074;48.596;9.238;2023-06-04T10:38:48;6.85;;;3.22;;
21822;SDS011;11074;48.596;9.238;2023-06-04T10:41:19;6.18;;;3.38;;
21822;SDS011;11074;48.596;9.238;2023-06-04T10:43:50;8.05;;;3.13;;
21822;SDS011;11074;48.596;9.238;2023-06-04T10:46:18;7.25;;;3.60;;
21822;SDS011;11074;48.596;9.238;2023-06-04T10:48:48;4.30;;;2.83;;
21822;SDS011;11074;48.596;9.238;2023-06-04T10:51:16;4.38;;;2.75;;
21822;SDS011;11074;48.596;9.238;2023-06-04T10:53:58;5.82;;;3.75;;
21822;SDS011;11074;48.596;9.238;2023-06-04T10:56:29;6.30;;;3.72;;
21822;SDS011;11074;48.596;9.238;2023-06-04T10:59:15;5.72;;;3.17;;
21822;SDS011;11074;48.596;9.238;2023-06-04T11:01:43;7.13;;;3.80;;
21822;SDS011;11074;48.596;9.238;2023-06-04T11:06:46;8.10;;;3.85;;
21822;SDS011;11074;48.596;9.238;2023-06-04T11:09:12;8.00;;;4.20;;
21822;SDS011;11074;48.596;9.238;2023-06-04T11:11:43;6.10;;;3.20;;
21822;SDS011;11074;48.596;9.238;2023-06-04T11:14:10;6.75;;;3.75;;
21822;SDS011;11074;48.596;9.238;2023-06-04T11:16:38;5.20;;;3.60;;
21822;SDS011;11074;48.596;9.238;2023-06-04T11:19:04;8.77;;;4.15;;
21822;SDS011;11074;48.596;9.238;2023-06-04T11:21:30;5.72;;;3.60;;
21822;SDS011;11074;48.596;9.238;2023-06-04T11:23:58;5.70;;;3.60;;
21822;SDS011;11074;48.596;9.238;2023-06-04T11:26:34;9.38;;;3.65;;
21822;SDS011;11074;48.596;9.238;2023-06-04T11:29:05;5.20;;;3.75;;
21822;SDS011;11074;48.596;9.238;2023-06-04T11:31:42;7.03;;;3.58;;
21822;SDS011;11074;48.596;9.238;2023-06-04T11:34:10;6.13;;;3.50;;
21822;SDS011;11074;48.596;9.238;2023-06-04T11:36:46;5.78;;;3.72;;
21822;SDS011;11074;48.596;9.238;2023-06-04T11:39:14;6.22;;;3.90;;
21822;SDS011;11074;48.596;9.238;2023-06-04T11:41:40;6.32;;;3.80;;
21822;SDS011;11074;48.596;9.238;2023-06-04T11:44:07;6.05;;;3.78;;
21822;SDS011;11074;48.596;9.238;2023-06-04T11:46:33;6.65;;;3.90;;
21822;SDS011;11074;48.596;9.238;2023-06-04T11:49:01;5.90;;;3.78;;
21822;SDS011;11074;48.596;9.238;2023-06-04T11:51:28;7.50;;;3.92;;
21822;SDS011;11074;48.596;9.238;2023-06-04T11:53:54;5.78;;;3.95;;
21822;SDS011;11074;48.596;9.238;2023-06-04T11:56:20;4.88;;;3.75;;
21822;SDS011;11074;48.596;9.238;2023-06-04T11:58:50;5.53;;;3.72;;
21822;SDS011;11074;48.596;9.238;2023-06-04T12:01:19;8.57;;;4.20;;
21822;SDS011;11074;48.596;9.238;2023-06-04T12:03:45;5.88;;;4.22;;
21822;SDS011;11074;48.596;9.238;2023-06-04T12:06:15;7.28;;;4.13;;
21822;SDS011;11074;48.596;9.238;2023-06-04T12:08:44;5.75;;;4.15;;
21822;SDS011;11074;48.596;9.238;2023-06-04T12:11:47;5.68;;;3.75;;
21822;SDS011;11074;48.596;9.238;2023-06-04T12:14:06;7.22;;;4.32;;
21822;SDS011;11074;48.596;9.238;2023-06-04T12:16:33;5.93;;;4.00;;
21822;SDS011;11074;48.596;9.238;2023-06-04T12:19:06;6.00;;;3.97;;
21822;SDS011;11074;48.596;9.238;2023-06-04T12:24:09;4.97;;;3.60;;
21822;SDS011;11074;48.596;9.238;2023-06-04T12:26:37;6.43;;;4.10;;
21822;SDS011;11074;48.596;9.238;2023-06-04T12:29:09;8.82;;;3.88;;
21822;SDS011;11074;48.596;9.238;2023-06-04T12:31:44;5.00;;;3.50;;
21822;SDS011;11074;48.596;9.238;2023-06-04T12:34:12;5.65;;;3.83;;
21822;SDS011;11074;48.596;9.238;2023-06-04T12:36:39;6.80;;;4.43;;
21822;SDS011;11074;48.596;9.238;2023-06-04T12:39:06;6.38;;;3.70;;
21822;SDS011;11074;48.596;9.238;2023-06-04T12:41:32;5.05;;;3.95;;
21822;SDS011;11074;48.596;9.238;2023-06-04T12:43:59;6.47;;;3.63;;
21822;SDS011;11074;48.596;9.238;2023-06-04T12:46:25;5.60;;;3.92;;
21822;SDS011;11074;48.596;9.238;2023-06-04T12:48:52;5.30;;;3.90;;
21822;SDS011;11074;48.596;9.238;2023-06-04T12:51:19;5.93;;;3.70;;
21822;SDS011;11074;48.596;9.238;2023-06-04T12:53:46;6.40;;;4.40;;
21822;SDS011;11074;48.596;9.238;2023-06-04T12:56:13;6.90;;;3.75;;
21822;SDS011;11074;48.596;9.238;2023-06-04T12:58:39;5.65;;;4.18;;
21822;SDS011;11074;48.596;9.238;2023-06-04T13:01:05;7.40;;;3.75;;
21822;SDS011;11074;48.596;9.238;2023-06-04T13:03:31;6.68;;;3.65;;
21822;SDS011;11074;48.596;9.238;2023-06-04T13:05:57;6.05;;;3.88;;
21822;SDS011;11074;48.596;9.238;2023-06-04T13:08:23;5.07;;;3.80;;
21822;SDS011;11074;48.596;9.238;2023-06-04T13:10:50;5.00;;;3.50;;
21822;SDS011;11074;48.596;9.238;2023-06-04T13:13:17;6.82;;;3.85;;
21822;SDS011;11074;48.596;9.238;2023-06-04T13:15:43;6.05;;;4.07;;
21822;SDS011;11074;48.596;9.238;2023-06-04T13:18:10;4.85;;;3.65;;
21822;SDS011;11074;48.596;9.238;2023-06-04T13:20:36;7.25;;;4.03;;
21822;SDS011;11074;48.596;9.238;2023-06-04T13:23:04;5.55;;;4.00;;
21822;SDS011;11074;48.596;9.238;2023-06-04T13:25:30;6.30;;;3.83;;
21822;SDS011;11074;48.596;9.238;2023-06-04T13:27:58;4.97;;;3.50;;
21822;SDS011;11074;48.596;9.238;2023-06-04T13:30:25;5.90;;;3.70;;
21822;SDS011;11074;48.596;9.238;2023-06-04T13:32:51;5.05;;;3.70;;
21822;SDS011;11074;48.596;9.238;2023-06-04T13:35:17;4.85;;;3.53;;
21822;SDS011;11074;48.596;9.238;2023-06-04T13:37:43;7.30;;;3.83;;
21822;SDS011;11074;48.596;9.238;2023-06-04T13:40:09;8.05;;;3.50;;
21822;SDS011;11074;48.596;9.238;2023-06-04T13:42:35;5.85;;;3.40;;
21822;SDS011;11074;48.596;9.238;2023-06-04T13:45:01;5.88;;;3.58;;
21822;SDS011;11074;48.596;9.238;2023-06-04T13:47:27;5.35;;;3.50;;
21822;SDS011;11074;48.596;9.238;2023-06-04T13:49:53;5.90;;;3.63;;
21822;SDS011;11074;48.596;9.238;2023-06-04T13:52:18;5.47;;;4.05;;
21822;SDS011;11074;48.596;9.238;2023-06-04T13:54:44;6.63;;;3.63;;
21822;SDS011;11074;48.596;9.238;2023-06-04T13:57:10;5.30;;;3.20;;
21822;SDS011;11074;48.596;9.238;2023-06-04T13:59:36;6.82;;;3.70;;
21822;SDS011;11074;48.596;9.238;2023-06-04T14:02:02;6.85;;;3.60;;
21822;SDS011;11074;48.596;9.238;2023-06-04T14:04:28;4.30;;;3.33;;
21822;SDS011;11074;48.596;9.238;2023-06-04T14:06:54;5.47;;;3.13;;
21822;SDS011;11074;48.596;9.238;2023-06-04T14:09:20;6.30;;;3.50;;
21822;SDS011;11074;48.596;9.238;2023-06-04T14:11:46;5.13;;;3.70;;
21822;SDS011;11074;48.596;9.238;2023-06-04T14:14:18;4.88;;;3.50;;
21822;SDS011;11074;48.596;9.238;2023-06-04T14:16:44;6.35;;;3.47;;
21822;SDS011;11074;48.596;9.238;2023-06-04T14:19:10;4.88;;;3.35;;
21822;SDS011;11074;48.596;9.238;2023-06-04T14:21:37;5.25;;;3.15;;
21822;SDS011;11074;48.596;9.238;2023-06-04T14:24:03;4.88;;;3.38;;
21822;SDS011;11074;48.596;9.238;2023-06-04T14:26:29;4.57;;;3.55;;
21822;SDS011;11074;48.596;9.238;2023-06-04T14:28:55;4.18;;;3.05;;
21822;SDS011;11074;48.596;9.238;2023-06-04T14:31:21;4.22;;;3.13;;
21822;SDS011;11074;48.596;9.238;2023-06-04T14:33:47;3.95;;;2.90;;
21822;SDS011;11074;48.596;9.238;2023-06-04T14:36:13;4.47;;;2.90;;
21822;SDS011;11074;48.596;9.238;2023-06-04T14:38:38;4.00;;;3.08;;
21822;SDS011;11074;48.596;9.238;2023-06-04T14:41:04;3.92;;;3.00;;
21822;SDS011;11074;48.596;9.238;2023-06-04T14:43:30;4.15;;;3.00;;
21822;SDS011;11074;48.596;9.238;2023-06-04T14:45:56;5.10;;;3.25;;
21822;SDS011;11074;48.596;9.238;2023-06-04T14:48:21;5.07;;;3.42;;
21822;SDS011;11074;48.596;9.238;2023-06-04T14:50:48;4.07;;;2.88;;
21822;SDS011;11074;48.596;9.238;2023-06-04T14:53:14;3.35;;;2.63;;
21822;SDS011;11074;48.596;9.238;2023-06-04T14:55:41;4.45;;;3.20;;
21822;SDS011;11074;48.596;9.238;2023-06-04T14:58:07;5.22;;;3.50;;
21822;SDS011;11074;48.596;9.238;2023-06-04T15:00:33;6.07;;;3.45;;
21822;SDS011;11074;48.596;9.238;2023-06-04T15:02:58;5.68;;;3.70;;